Nearby METAR Reports

 

YSRI - Richmond (aus-Af, Australia
Distance from station: WSW 35km
Updated: 18/07/2018 08:30
Clear
Clear
 Wind from calm
Wind: Calm
Temperature: 14°C
Dew Point: 4°C
Humidity: 51%
Barometer: 1018 hPa
Clouds: Clear
Visibility: 10 km
2018/07/17 22:30 YSRI 172230Z AUTO 00000KT 9999 // NCD 14/04 Q1018 RF00.0/000.0 PRESENT WEATHER SENSOR US
YSSY - Sydney Intl Airp, Australia
Distance from station: S 47km
Updated: 18/07/2018 08:30
Clear
Clear
 Wind from WNW
Wind: WNW 11 km/h
Temperature: 15°C
Dew Point: 1°C
Humidity: 39%
Barometer: 1017 hPa
Summary: Clear
Visibility: greater than 10 km
2018/07/17 22:30 YSSY 172230Z 29006KT CAVOK 15/01 Q1017 NOSIG
YWLM - Williamtown Arp, Australia
Distance from station: NE 104km
Updated: 18/07/2018 08:30
Clear
Clear
 Wind from NW
Wind: NW 24 km/h
Temperature: 15°C
Dew Point: -2°C
Humidity: 31%
Barometer: 1018 hPa
Summary: Clear
Visibility: greater than 10 km
2018/07/17 22:30 YWLM 172230Z 31013KT CAVOK 15/M02 Q1018 FM2230 MOD TURB BLW 5000FT TILL 2400
 
YSNW - Nowra (aus-Navy), Australia
Distance from station: SSW 168km
Updated: 18/07/2018 08:00
Clear
Clear
 Wind from NW
Wind: NW 26 km/h
Temperature: 10°C
Wind Chill: 7°C
Dew Point: 1°C
Humidity: 54%
Barometer: 1017 hPa
Summary: Clear
Visibility: greater than 10 km
2018/07/17 22:00 YSNW 172200Z 31014KT CAVOK 10/01 Q1017 FM2200 MOD TURB BLW 5000FT TILL2300
YMDG - Mudgee Arpt, Australia
Distance from station: NW 177km
Updated: 18/07/2018 08:00
Clear
Clear
 Wind from N
Wind: N 13 km/h
Temperature: 4°C
Wind Chill: 1°C
Dew Point: -1°C
Humidity: 70%
Barometer: 1019 hPa
Clouds: Clear
Visibility: 10 km
2018/07/17 22:00 YMDG 172200Z AUTO 01007KT 9999 // NCD 04/M01 Q1019
YTRE - Taree Airport, Australia
Distance from station: NE 224km
Updated: 18/07/2018 08:00
Clear
Clear
 Wind from NW
Wind: NW 7 km/h
Temperature: 8°C
Wind Chill: 7°C
Dew Point: 4°C
Humidity: 76%
Barometer: 1018 hPa
Clouds: Clear
Visibility: 10 km
2018/07/17 22:00 YTRE 172200Z AUTO 31004KT 9999 // NCD 08/04 Q1018
 
YSCB - Canberra (civ/Mi, Australia
Distance from station: SW 265km
Updated: 18/07/2018 08:30
Clear
Clear
 Wind from N
Wind: N 9 km/h
Temperature: 5°C
Wind Chill: 3°C
Dew Point: 1°C
Humidity: 76%
Barometer: 1017 hPa
Summary: Clear
Visibility: greater than 10 km
2018/07/17 22:30 YSCB 172230Z 35005KT CAVOK 05/01 Q1017 FM2230 MOD TURB BLW 5000FT TILL 0000
YSTW - Tamworth Airport, Australia
Distance from station: N 275km
Updated: 18/07/2018 08:30
Clear
Clear
 Wind from S
Wind: S 13 km/h
Temperature: 8°C
Wind Chill: 6°C
Dew Point: -4°C
Humidity: 43%
Barometer: 1021 hPa
Clouds: Clear
Visibility: 10 km
2018/07/17 22:30 YSTW 172230Z AUTO 17007KT 140V200 9999 // NCD 08/M04 Q1021 RF00.0/000.0
YSDU - Dubbo, Australia
Distance from station: WNW 280km
Updated: 18/07/2018 08:30
Clear
Clear
 Wind from N
Wind: N 2 km/h
Temperature: 7°C
Dew Point: -2°C
Humidity: 53%
Barometer: 1020 hPa
Clouds: Clear
Visibility: 10 km
2018/07/17 22:30 YSDU 172230Z AUTO 01001KT 9999 // NCD 07/M02 Q1020 RF00.0/000.0
 
YPMQ - Port Macquarie, Australia
Distance from station: NE 284km
Updated: 15/07/2018 21:30
NOT Current
Clear
Clear
 Wind from calm
Wind: Calm
Temperature: 2°C
Dew Point: 1°C
Humidity: 93%
Barometer: 1015 hPa
Clouds: Clear
Visibility: 10 km
2018/07/15 11:30 YPMQ 151130Z AUTO 00000KT 9999 // NCD 02/01 Q1015
YCBB - Coonabarabran, Australia
Distance from station: NW 300km
Updated: 18/07/2018 08:00
Clear
Clear
 Wind from NNW
Wind: NNW 9 km/h
Temperature: 10°C
Wind Chill: 9°C
Dew Point: -6°C
Humidity: 32%
Barometer: 1019 hPa
Clouds: Clear
Visibility: 10 km
2018/07/17 22:00 YCBB 172200Z AUTO 34005KT 9999 // NCD 10/M06 Q1019